Time;durP1;ratioP1;P1;durP2;ratioP2;P2;SDS_P1;SDS_P2;PMS_P1;PMS_P2;Temp;Humidity;BMP_temperature;BMP_pressure;BME280_temperature;BME280_humidity;BME280_pressure;Samples;Min_cycle;Max_cycle;Signal;HPM_P1;HPM_P2
2022/12/19 00:01:34;;;;;;;29.77;15.88;;;1.50;99.90;;;;;;6202507;23;20012;-95
2022/12/19 00:04:14;;;;;;;32.22;18.08;;;1.80;99.90;;;;;;6230281;23;20034;-94
2022/12/19 00:06:40;;;;;;;29.33;15.77;;;1.40;99.90;;;;;;6226814;23;20016;-94
2022/12/19 00:09:11;;;;;;;29.77;15.32;;;1.20;99.90;;;;;;6203143;23;20016;-93
2022/12/19 00:11:40;;;;;;;29.08;16.25;;;1.00;99.90;;;;;;6205495;23;20046;-94
2022/12/19 00:14:10;;;;;;;32.55;18.73;;;0.90;99.90;;;;;;6228098;23;20012;-95
2022/12/19 00:16:43;;;;;;;36.97;22.35;;;1.10;99.90;;;;;;6229351;23;20054;-94
2022/12/19 00:19:11;;;;;;;;;;;1.10;99.90;;;;;;6206024;23;20016;-94
2022/12/19 00:21:38;;;;;;;33.85;18.23;;;1.50;99.90;;;;;;6229304;23;20117;-94
2022/12/19 00:24:07;;;;;;;27.48;14.35;;;1.10;99.90;;;;;;6202841;23;20027;-95
2022/12/19 00:26:48;;;;;;;36.45;18.85;;;0.40;99.90;;;;;;6228689;23;20384;-94
2022/12/19 00:29:14;;;;;;;24.98;14.32;;;1.20;99.90;;;;;;6203552;23;20024;-95
2022/12/19 00:31:40;;;;;;;39.05;20.85;;;1.20;99.90;;;;;;6201889;23;20008;-95
2022/12/19 00:34:08;;;;;;;27.30;14.75;;;1.10;99.90;;;;;;6226985;23;20020;-94
2022/12/19 00:36:36;;;;;;;27.45;13.88;;;2.80;99.90;;;;;;6228154;23;20016;-95
2022/12/19 00:39:17;;;;;;;30.45;14.75;;;2.90;99.90;;;;;;6201406;23;20020;-96
2022/12/19 00:41:53;;;;;;;33.35;19.95;;;1.70;99.90;;;;;;6208762;23;20047;-94
2022/12/19 00:44:21;;;;;;;34.53;17.90;;;2.60;99.90;;;;;;6229766;23;20027;-93
2022/12/19 00:47:00;;;;;;;30.30;14.18;;;1.30;99.90;;;;;;6179931;23;20333;-95
2022/12/19 00:49:26;;;;;;;34.08;20.98;;;1.10;99.90;;;;;;6231059;23;20095;-95
2022/12/19 00:51:56;;;;;;;27.77;13.52;;;-0.10;99.90;;;;;;6228106;23;20012;-94
2022/12/19 00:54:38;;;;;;;32.65;18.33;;;1.90;99.90;;;;;;6203802;23;20023;-94
2022/12/19 00:57:29;;;;;;;28.42;16.23;;;2.50;99.90;;;;;;6205958;23;20012;-95
2022/12/19 00:59:58;;;;;;;30.77;17.90;;;1.30;99.90;;;;;;6229248;23;20020;-94
2022/12/19 01:02:23;;;;;;;36.28;21.73;;;1.30;99.90;;;;;;6227806;23;20401;-94
2022/12/19 01:04:58;;;;;;;27.95;16.40;;;1.40;99.90;;;;;;6228051;23;20016;-94
2022/12/19 01:07:27;;;;;;;;;;;1.30;99.90;;;;;;6202950;23;20077;-95
2022/12/19 01:09:56;;;;;;;23.38;12.65;;;1.20;99.90;;;;;;6227203;23;19895;-95
2022/12/19 01:15:07;;;;;;;37.42;21.23;;;1.30;99.90;;;;;;6250826;23;20464;-94
2022/12/19 01:17:45;;;;;;;34.78;17.50;;;1.50;99.90;;;;;;6174810;23;20016;-94
2022/12/19 01:20:15;;;;;;;29.35;14.90;;;2.00;99.90;;;;;;6224774;23;20020;-95
2022/12/19 01:22:42;;;;;;;32.33;19.13;;;3.10;99.90;;;;;;6198213;23;20023;-94
2022/12/19 01:25:08;;;;;;;27.45;14.55;;;1.50;99.90;;;;;;6224191;23;20095;-94
2022/12/19 01:27:40;;;;;;;39.70;20.30;;;1.20;99.90;;;;;;6175181;23;20129;-94
2022/12/19 01:30:07;;;;;;;34.83;18.42;;;1.80;99.90;;;;;;6202812;23;20027;-94
2022/12/19 01:32:36;;;;;;;38.63;21.30;;;0.40;99.90;;;;;;6198732;23;20020;-94
2022/12/19 01:35:11;;;;;;;37.13;20.23;;;0.90;99.90;;;;;;6178016;23;20016;-95
2022/12/19 01:37:37;;;;;;;32.30;16.88;;;1.40;99.90;;;;;;6226560;23;20421;-93
2022/12/19 01:40:10;;;;;;;30.52;15.15;;;1.20;99.90;;;;;;6224793;23;20016;-94
2022/12/19 01:42:39;;;;;;;30.05;14.55;;;1.40;99.90;;;;;;6226611;23;20099;-94
2022/12/19 01:45:05;;;;;;;41.53;23.50;;;1.70;99.90;;;;;;6224240;23;20016;-93
2022/12/19 01:47:34;;;;;;;34.55;18.80;;;1.50;99.90;;;;;;6222706;23;20484;-93
2022/12/19 01:50:04;;;;;;;36.55;18.60;;;2.30;99.90;;;;;;6222462;23;20024;-92
2022/12/19 01:52:31;;;;;;;28.23;15.63;;;1.40;99.90;;;;;;6198369;22;20329;-93
2022/12/19 01:54:58;;;;;;;27.13;14.05;;;2.50;99.90;;;;;;6172821;23;20016;-94
2022/12/19 01:57:24;;;;;;;38.78;20.38;;;1.50;99.90;;;;;;6221425;23;20012;-95
2022/12/19 01:59:56;;;;;;;33.63;20.25;;;3.40;99.90;;;;;;6198904;23;20349;-95
2022/12/19 02:02:32;;;;;;;30.42;15.13;;;1.40;99.90;;;;;;6221298;23;20017;-94
2022/12/19 02:05:00;;;;;;;35.55;18.95;;;1.50;99.90;;;;;;6221536;23;20496;-94
2022/12/19 02:07:27;;;;;;;31.73;15.60;;;1.60;99.90;;;;;;6220513;23;20014;-95
2022/12/19 02:09:55;;;;;;;35.45;19.40;;;1.50;99.90;;;;;;6224669;23;20024;-93
2022/12/19 02:12:29;;;;;;;41.55;22.42;;;2.00;99.90;;;;;;6223601;23;20016;-94
2022/12/19 02:14:56;;;;;;;37.50;19.67;;;2.80;99.90;;;;;;6200678;23;20095;-94
2022/12/19 02:17:30;;;;;;;37.60;20.83;;;1.80;99.90;;;;;;6197949;23;20023;-93
2022/12/19 02:20:21;;;;;;;27.08;16.85;;;1.60;99.90;;;;;;6224647;23;20016;-94
2022/12/19 02:22:50;;;;;;;36.17;19.27;;;1.90;99.90;;;;;;6223006;23;20019;-94
2022/12/19 02:25:58;;;;;;;39.35;20.67;;;2.10;99.90;;;;;;6225297;23;20087;-94
2022/12/19 02:28:53;;;;;;;21.60;12.38;;;1.70;99.90;;;;;;6249637;22;20020;-95
2022/12/19 02:31:52;;;;;;;36.50;19.77;;;2.00;99.90;;;;;;6225310;23;20051;-95
2022/12/19 02:34:46;;;;;;;39.05;20.35;;;1.80;99.90;;;;;;6223498;23;20019;-96
2022/12/19 02:37:20;;;;;;;40.92;20.75;;;2.70;99.90;;;;;;6223519;23;20024;-94
2022/12/19 02:40:01;;;;;;;32.25;16.98;;;2.60;99.90;;;;;;6224222;23;20055;-94
2022/12/19 02:42:32;;;;;;;42.30;24.00;;;2.10;99.90;;;;;;6223635;23;20012;-94
2022/12/19 02:44:59;;;;;;;28.95;14.88;;;2.10;99.90;;;;;;6227593;23;20016;-93
2022/12/19 02:47:27;;;;;;;41.17;21.55;;;1.00;99.90;;;;;;6223164;23;20016;-93
2022/12/19 02:49:56;;;;;;;42.10;21.23;;;2.20;99.90;;;;;;6226874;23;20043;-93
2022/12/19 02:52:22;;;;;;;46.67;23.48;;;2.00;99.90;;;;;;6174866;23;20024;-94
2022/12/19 02:54:50;;;;;;;32.22;16.58;;;2.50;99.90;;;;;;6223256;23;20079;-94
2022/12/19 02:57:52;;;;;;;32.28;16.48;;;3.40;99.90;;;;;;6223930;23;20103;-93
2022/12/19 03:01:06;;;;;;;37.47;18.45;;;1.80;99.90;;;;;;6234639;23;20020;-95
2022/12/19 03:03:56;;;;;;;35.67;17.75;;;2.00;99.90;;;;;;6225950;23;20047;-95
2022/12/19 03:06:42;;;;;;;45.47;22.88;;;2.10;99.90;;;;;;6224709;23;20020;-94
2022/12/19 03:09:29;;;;;;;46.40;23.52;;;2.00;99.90;;;;;;6225094;23;20020;-95
2022/12/19 03:12:10;;;;;;;45.55;23.65;;;0.40;99.90;;;;;;6224884;23;20015;-96
2022/12/19 03:14:45;;;;;;;30.83;15.32;;;2.20;99.90;;;;;;6200672;23;20017;-95
2022/12/19 03:17:11;;;;;;;36.60;18.67;;;4.00;99.90;;;;;;6224458;23;20091;-95
2022/12/19 03:19:39;;;;;;;41.72;21.60;;;2.30;99.90;;;;;;6201654;23;20035;-94
2022/12/19 03:22:05;;;;;;;37.28;17.90;;;2.70;99.90;;;;;;6227420;23;20400;-94
2022/12/19 03:24:31;;;;;;;57.30;31.77;;;4.00;99.90;;;;;;6226015;23;20086;-94
2022/12/19 03:27:06;;;;;;;45.78;22.80;;;2.20;99.90;;;;;;6202589;23;20013;-94
2022/12/19 03:29:47;;;;;;;;;;;4.30;99.90;;;;;;6232046;23;20349;-96
2022/12/19 03:32:16;;;;;;;49.15;22.95;;;2.20;99.90;;;;;;6225739;23;19919;-96
2022/12/19 03:34:48;;;;;;;61.45;27.27;;;2.20;99.90;;;;;;6202622;23;20740;-95
2022/12/19 03:37:21;;;;;;;39.67;18.27;;;3.20;99.90;;;;;;6226721;23;20047;-94
2022/12/19 03:39:55;;;;;;;45.20;21.92;;;2.60;99.90;;;;;;6227540;23;20020;-96
2022/12/19 03:45:12;;;;;;;43.58;20.65;;;2.50;99.90;;;;;;6257806;22;20020;-96
2022/12/19 03:47:47;;;;;;;60.72;29.65;;;1.20;99.90;;;;;;6207966;23;20012;-96
2022/12/19 03:50:13;;;;;;;;;;;2.70;99.90;;;;;;6231633;23;20016;-95
2022/12/19 03:56:41;;;;;;;52.35;24.98;;;3.20;99.90;;;;;;6255957;22;20440;-96
2022/12/19 03:59:49;;;;;;;39.42;16.00;;;2.10;99.90;;;;;;6234699;23;20023;-96
2022/12/19 04:02:16;;;;;;;52.05;25.88;;;2.70;99.90;;;;;;6237031;23;20004;-96
2022/12/19 04:04:54;;;;;;;39.03;18.83;;;2.40;99.90;;;;;;6237915;22;20012;-96
2022/12/19 04:07:22;;;;;;;59.75;26.52;;;1.60;99.90;;;;;;6256002;23;20024;-96
2022/12/19 04:09:52;;;;;;;53.50;24.20;;;2.50;99.90;;;;;;6240438;23;20020;-96
2022/12/19 04:13:15;;;;;;;49.40;24.88;;;1.10;99.90;;;;;;6219540;23;20016;-96
2022/12/19 04:16:24;;;;;;;65.28;30.48;;;2.30;99.90;;;;;;6187133;23;20027;-96
2022/12/19 04:18:57;;;;;;;73.00;33.00;;;3.40;99.90;;;;;;6193149;23;20089;-78
2022/12/19 04:21:38;;;;;;;66.47;29.92;;;5.10;99.90;;;;;;6251224;23;20050;-79
2022/12/19 04:24:10;;;;;;;66.68;32.65;;;2.90;99.90;;;;;;6224183;23;20052;-80
2022/12/19 04:26:38;;;;;;;35.10;19.73;;;3.10;99.90;;;;;;6250415;23;20075;-79
2022/12/19 04:29:11;;;;;;;58.08;30.17;;;3.90;99.90;;;;;;6199867;23;20047;-78
2022/12/19 04:31:37;;;;;;;40.97;21.05;;;3.30;99.90;;;;;;6224473;23;20324;-78
2022/12/19 04:34:13;;;;;;;65.85;31.83;;;3.80;99.90;;;;;;6224898;23;20198;-78
2022/12/19 04:37:04;;;;;;;56.55;25.63;;;3.10;99.90;;;;;;6222862;23;20037;-80
2022/12/19 04:42:22;;;;;;;51.63;22.85;;;4.80;99.90;;;;;;6221624;23;20416;-78
2022/12/19 04:59:59;;;;;;;41.10;21.40;;;3.60;99.90;;;;;;6132011;23;20022;-77
2022/12/19 05:06:26;;;;;;;55.55;28.10;;;3.70;99.90;;;;;;6249897;23;20031;-79
2022/12/19 05:08:51;;;;;;;43.35;21.15;;;3.50;99.90;;;;;;6203857;23;20047;-80
2022/12/19 05:11:17;;;;;;;54.80;29.67;;;4.90;99.90;;;;;;6224972;23;20027;-79
2022/12/19 05:13:45;;;;;;;60.03;28.48;;;4.60;99.90;;;;;;6249741;23;20019;-77
2022/12/19 05:16:14;;;;;;;45.47;22.83;;;3.90;99.90;;;;;;6198915;23;20015;-78
2022/12/19 05:18:40;;;;;;;51.80;27.55;;;3.80;99.90;;;;;;6224874;23;20024;-77
2022/12/19 05:21:06;;;;;;;60.65;29.98;;;3.90;99.90;;;;;;6200131;23;20612;-79
2022/12/19 05:23:32;;;;;;;46.17;23.50;;;4.00;99.90;;;;;;6248010;23;20306;-80
2022/12/19 05:26:26;;;;;;;63.47;33.17;;;4.00;99.90;;;;;;6249065;23;20122;-78
2022/12/19 05:29:33;;;;;;;41.65;21.90;;;4.00;99.90;;;;;;6249400;23;20235;-79
2022/12/19 05:32:27;;;;;;;51.63;26.02;;;4.00;99.90;;;;;;6245195;23;20016;-79
2022/12/19 05:35:40;;;;;;;49.92;24.67;;;2.80;99.90;;;;;;6221740;23;20132;-81
2022/12/19 05:38:12;;;;;;;56.40;27.02;;;3.90;99.90;;;;;;6245986;23;20016;-79
2022/12/19 05:52:21;;;;;;;;;;;;;;;;;;;;;
2022/12/19 05:55:01;;;;;;;58.53;27.98;;;2.80;99.90;;;;;;5979930;23;20223;-80
2022/12/19 06:01:15;;;;;;;50.20;23.90;;;4.80;99.90;;;;;;6103840;23;20094;-77
2022/12/19 06:03:46;;;;;;;45.40;22.05;;;5.70;99.90;;;;;;6109974;23;20048;-77
2022/12/19 06:06:37;;;;;;;59.53;29.47;;;4.00;99.90;;;;;;6107093;23;20037;-78
2022/12/19 06:09:07;;;;;;;39.83;21.17;;;4.40;99.90;;;;;;6125762;23;20098;-78
2022/12/19 06:11:56;;;;;;;45.03;24.00;;;4.00;99.90;;;;;;6101656;23;20037;-78
2022/12/19 06:14:25;;;;;;;24.83;14.45;;;4.10;99.90;;;;;;6098819;23;20346;-77
2022/12/19 06:16:53;;;;;;;52.33;27.38;;;4.00;99.90;;;;;;6120660;23;20030;-80
2022/12/19 06:19:35;;;;;;;41.90;20.65;;;4.10;99.90;;;;;;6156702;23;20082;-79
2022/12/19 06:22:32;;;;;;;30.40;17.60;;;5.10;99.90;;;;;;6164226;23;20080;-79
2022/12/19 06:25:00;;;;;;;43.75;21.83;;;3.90;99.90;;;;;;6132361;23;20025;-79
2022/12/19 06:27:29;;;;;;;46.90;23.63;;;5.50;99.90;;;;;;6162458;23;20048;-77
2022/12/19 06:29:57;;;;;;;43.53;21.55;;;4.50;99.90;;;;;;6164548;23;20080;-78
2022/12/19 06:32:23;;;;;;;44.13;23.75;;;4.40;99.90;;;;;;6140135;23;20013;-78
2022/12/19 06:34:49;;;;;;;44.60;24.67;;;4.30;99.90;;;;;;6164231;23;20487;-80
2022/12/19 06:45:54;;;;;;;42.58;22.23;;;4.20;99.90;;;;;;6007241;23;20016;-81
2022/12/19 06:48:50;;;;;;;32.15;16.95;;;3.80;99.90;;;;;;5994957;23;20012;-82
2022/12/19 06:51:41;;;;;;;37.08;19.65;;;4.80;99.90;;;;;;5969545;23;20113;-80
2022/12/19 06:54:08;;;;;;;32.67;16.98;;;4.80;99.90;;;;;;6161171;23;20020;-80
2022/12/19 06:57:00;;;;;;;45.35;23.85;;;4.40;99.90;;;;;;6146923;23;20009;-81
2022/12/19 07:03:37;;;;;;;33.30;16.92;;;3.70;99.90;;;;;;6046666;23;20022;-80
2022/12/19 07:06:25;;;;;;;;;;;;;;;;;;;;;
2022/12/19 07:09:30;;;;;;;26.30;14.50;;;4.60;99.90;;;;;;6204173;23;20349;-79
2022/12/19 07:12:01;;;;;;;28.13;14.68;;;5.30;99.90;;;;;;6148557;23;20016;-78
2022/12/19 07:21:41;;;;;;;27.13;13.98;;;5.10;99.90;;;;;;6192223;22;20208;-80
2022/12/19 07:28:03;;;;;;;30.98;15.02;;;4.90;99.90;;;;;;6251146;23;20028;-80
2022/12/19 07:38:46;;;;;;;21.25;12.07;;;4.20;99.90;;;;;;6125682;23;20037;-81
2022/12/19 07:41:22;;;;;;;23.75;12.93;;;6.20;99.90;;;;;;6105401;23;20025;-81
2022/12/19 07:43:53;;;;;;;22.50;13.25;;;4.10;99.90;;;;;;6083238;23;20010;-80
2022/12/19 07:46:57;;;;;;;28.27;14.65;;;5.20;99.90;;;;;;6156147;23;20049;-81
2022/12/19 07:49:36;;;;;;;28.02;14.50;;;5.70;99.90;;;;;;6125985;23;20059;-81
2022/12/19 07:52:03;;;;;;;18.58;10.48;;;5.50;99.90;;;;;;6217101;23;20302;-80
2022/12/19 07:54:40;;;;;;;16.92;9.88;;;5.30;99.90;;;;;;6201787;23;20067;-81
2022/12/19 07:57:20;;;;;;;24.63;13.73;;;5.40;99.90;;;;;;6226989;23;20022;-79
2022/12/19 08:03:07;;;;;;;24.83;14.90;;;5.70;99.90;;;;;;6201052;23;20024;-80
2022/12/19 08:09:36;;;;;;;23.55;14.13;;;6.50;99.90;;;;;;6187941;23;20023;-80
2022/12/19 08:12:36;;;;;;;17.33;10.32;;;5.40;99.90;;;;;;6115432;23;20247;-80
2022/12/19 08:15:05;;;;;;;11.00;7.07;;;5.00;99.90;;;;;;6122336;23;20320;-81
2022/12/19 08:17:51;;;;;;;25.35;13.38;;;5.60;99.90;;;;;;6114783;23;20018;-80
2022/12/19 08:20:22;;;;;;;16.23;10.50;;;4.70;99.90;;;;;;6105486;23;20021;-79
2022/12/19 08:22:57;;;;;;;22.38;13.55;;;5.30;99.90;;;;;;6169550;23;20054;-79
2022/12/19 08:25:44;;;;;;;19.63;11.68;;;5.60;99.90;;;;;;6170175;23;20424;-79
2022/12/19 08:29:15;;;;;;;25.10;14.10;;;5.40;99.90;;;;;;6193813;23;20009;-78
2022/12/19 08:32:41;;;;;;;24.83;13.25;;;6.00;99.90;;;;;;6159937;23;20397;-78
2022/12/19 08:35:10;;;;;;;25.30;13.68;;;4.50;99.90;;;;;;6179650;23;20013;-78
2022/12/19 08:37:59;;;;;;;18.25;11.48;;;6.00;99.90;;;;;;6168046;23;20498;-77
2022/12/19 08:40:27;;;;;;;28.35;16.17;;;5.60;99.90;;;;;;6193167;23;20008;-79
2022/12/19 08:42:53;;;;;;;20.67;12.65;;;5.60;99.90;;;;;;6191588;23;20533;-78
2022/12/19 08:45:19;;;;;;;27.00;14.63;;;4.60;99.90;;;;;;6168007;23;20011;-77
2022/12/19 08:47:47;;;;;;;13.43;8.75;;;6.10;99.90;;;;;;6194358;23;20023;-75
2022/12/19 08:50:13;;;;;;;19.08;12.27;;;5.80;99.90;;;;;;6195671;23;20008;-78
2022/12/19 08:52:48;;;;;;;22.45;12.85;;;6.10;99.90;;;;;;6224339;23;20122;-77
2022/12/19 08:55:14;;;;;;;23.52;14.23;;;6.20;99.90;;;;;;6225306;23;20434;-78
2022/12/19 08:57:45;;;;;;;20.23;12.85;;;6.00;99.90;;;;;;6225748;23;20012;-78
2022/12/19 09:05:15;;;;;;;;;;;;;;;;;;;;;
2022/12/19 09:08:27;;;;;;;16.95;10.00;;;6.30;99.90;;;;;;6222064;23;20098;-78
2022/12/19 09:15:51;;;;;;;21.90;14.02;;;7.80;99.90;;;;;;5932257;23;20093;-77
2022/12/19 09:18:19;;;;;;;22.17;13.30;;;8.00;99.90;;;;;;6052155;23;20020;-78
2022/12/19 09:21:45;;;;;;;;;;;;;;;;;;;;;
2022/12/19 09:24:44;;;;;;;24.63;14.80;;;5.40;99.90;;;;;;6096360;23;20018;-77
2022/12/19 09:27:39;;;;;;;27.80;15.50;;;7.70;99.90;;;;;;6016570;23;20282;-77
2022/12/19 09:30:24;;;;;;;;;;;;;;;;;;;;;
2022/12/19 09:33:37;;;;;;;;;;;;;;;;;;;;;
2022/12/19 09:47:35;;;;;;;25.92;15.27;;;6.60;99.90;;;;;;6046493;23;20025;-79
2022/12/19 09:50:51;;;;;;;;;;;;;;;;;;;;;
2022/12/19 09:54:09;;;;;;;37.58;18.38;;;7.20;99.90;;;;;;6182769;23;20066;-78
2022/12/19 09:56:39;;;;;;;28.40;17.33;;;6.90;99.90;;;;;;6173361;23;20067;-77
2022/12/19 09:59:35;;;;;;;28.73;17.15;;;7.30;99.90;;;;;;6246509;23;20016;-77
2022/12/19 10:02:25;;;;;;;27.45;16.38;;;6.80;99.90;;;;;;6262830;22;20031;-77
2022/12/19 10:05:20;;;;;;;29.35;17.42;;;7.20;99.90;;;;;;6221043;23;20040;-77
2022/12/19 10:39:55;;;;;;;29.13;17.60;;;7.20;99.90;;;;;;5820254;24;20037;-76
2022/12/19 10:43:05;;;;;;;29.85;18.25;;;7.40;99.90;;;;;;5979878;23;20083;-76
2022/12/19 10:49:41;;;;;;;25.52;15.32;;;7.80;99.90;;;;;;5955777;24;20222;-76
2022/12/19 10:52:15;;;;;;;22.75;15.40;;;7.30;99.90;;;;;;5988240;23;20072;-76
2022/12/19 10:55:10;;;;;;;;;;;;;;;;;;;;;
2022/12/19 10:57:44;;;;;;;29.15;15.93;;;7.70;99.90;;;;;;6131692;23;20068;-76
2022/12/19 11:01:11;;;;;;;26.38;16.85;;;8.00;99.90;;;;;;6128407;23;20329;-76
2022/12/19 11:08:17;;;;;;;;;;;;;;;;;;;;;
2022/12/19 11:11:07;;;;;;;;;;;;;;;;;;;;;
2022/12/19 11:14:47;;;;;;;22.15;15.27;;;7.90;99.90;;;;;;6187181;23;20016;-75
2022/12/19 11:17:27;;;;;;;24.75;16.10;;;8.30;99.90;;;;;;6165613;23;20328;-75
2022/12/19 11:47:42;;;;;;;;;;;;;;;;;;;;;
2022/12/19 11:54:33;;;;;;;25.17;15.80;;;7.20;99.90;;;;;;6158493;23;20052;-79
2022/12/19 14:11:02;;;;;;;19.85;12.40;;;8.20;99.90;;;;;;6020254;23;20007;-78
2022/12/19 14:18:31;;;;;;;20.40;13.07;;;9.50;99.90;;;;;;6051332;23;20221;-78
2022/12/19 14:33:17;;;;;;;;;;;7.70;99.90;;;;;;5902365;24;20021;-78
2022/12/19 14:36:15;;;;;;;;;;;;;;;;;;;;;
2022/12/19 14:39:13;;;;;;;18.63;12.90;;;9.10;99.90;;;;;;5896650;24;20016;-78
2022/12/19 14:45:22;;;;;;;17.55;11.60;;;9.20;99.90;;;;;;6119569;23;20068;-78
2022/12/19 14:47:53;;;;;;;17.50;13.02;;;9.40;99.90;;;;;;6095897;23;20022;-77
2022/12/19 15:56:50;;;;;;;;;;;;;;;;;;;;;
2022/12/19 16:00:19;;;;;;;13.27;7.60;;;8.80;99.90;;;;;;6011592;23;20012;-78
2022/12/19 16:05:55;;;;;;;9.93;7.20;;;9.00;99.90;;;;;;6011952;23;20034;-77
2022/12/19 16:09:06;;;;;;;;;;;;;;;;;;;;;
2022/12/19 16:12:59;;;;;;;14.30;9.38;;;8.20;99.90;;;;;;5982669;24;20356;-77
2022/12/19 16:16:10;;;;;;;12.77;9.57;;;10.00;99.90;;;;;;5851505;24;20021;-78
2022/12/19 16:26:43;;;;;;;;;;;;;;;;;;;;;
2022/12/19 16:30:02;;;;;;;14.70;9.98;;;9.10;99.90;;;;;;5798058;24;20037;-77
2022/12/19 16:32:36;;;;;;;14.20;10.60;;;9.30;99.90;;;;;;5792584;24;20011;-77
2022/12/19 16:39:31;;;;;;;14.30;10.80;;;8.30;99.90;;;;;;5929530;24;20055;-76
2022/12/19 16:47:56;;;;;;;;;;;;;;;;;;;;;
2022/12/19 16:50:39;;;;;;;14.52;10.48;;;9.20;99.90;;;;;;5975637;24;20310;-77
2022/12/19 16:54:24;;;;;;;;;;;;;;;;;;;;;
2022/12/19 17:01:31;;;;;;;16.10;10.75;;;8.90;99.90;;;;;;5738610;24;20024;-76
2022/12/19 17:16:27;;;;;;;;;;;;;;;;;;;;;
2022/12/19 17:26:46;;;;;;;19.23;11.85;;;8.30;99.90;;;;;;5793605;24;20022;-77
2022/12/19 17:33:54;;;;;;;14.90;10.17;;;8.30;99.90;;;;;;5953846;23;20515;-77
2022/12/19 17:37:35;;;;;;;15.63;11.50;;;9.20;99.90;;;;;;6006856;23;20019;-75
2022/12/19 17:40:59;;;;;;;;;;;;;;;;;;;;;
2022/12/19 17:44:19;;;;;;;14.98;10.70;;;8.40;99.90;;;;;;5921983;23;20068;-77
2022/12/19 17:48:06;;;;;;;13.32;10.30;;;9.00;99.90;;;;;;5960579;23;20050;-75
2022/12/19 17:54:55;;;;;;;13.23;10.00;;;8.90;99.90;;;;;;5999569;23;20191;-75
2022/12/19 17:58:41;;;;;;;;;;;;;;;;;;;;;
2022/12/19 18:01:45;;;;;;;;;;;;;;;;;;;;;
2022/12/19 18:05:03;;;;;;;;;;;;;;;;;;;;;
2022/12/19 18:08:33;;;;;;;;;;;;;;;;;;;;;
2022/12/19 18:11:23;;;;;;;17.50;10.82;;;8.60;99.90;;;;;;5998652;23;20016;-75
2022/12/19 18:14:11;;;;;;;16.40;10.60;;;8.80;99.90;;;;;;6098947;23;20214;-76
2022/12/19 18:16:37;;;;;;;15.55;10.88;;;7.60;99.90;;;;;;6089428;23;20373;-75
2022/12/19 18:24:16;;;;;;;;;;;;;;;;;;;;;
2022/12/19 18:32:26;;;;;;;;;;;;;;;;;;;;;
2022/12/19 18:35:59;;;;;;;12.50;7.82;;;8.70;99.90;;;;;;6025776;23;20019;-75
2022/12/19 18:38:49;;;;;;;12.32;9.23;;;8.60;99.90;;;;;;6014671;23;20011;-76
2022/12/19 18:52:20;;;;;;;18.00;10.13;;;8.10;99.90;;;;;;5985035;23;20032;-75
2022/12/19 18:54:46;;;;;;;15.25;10.45;;;8.00;99.90;;;;;;5989330;23;20015;-75
2022/12/19 18:57:22;;;;;;;14.98;10.60;;;8.00;99.90;;;;;;6038530;23;20016;-77
2022/12/19 18:59:49;;;;;;;12.25;9.35;;;7.80;99.90;;;;;;6104524;23;20016;-77
2022/12/19 19:02:47;;;;;;;13.55;9.60;;;8.20;99.90;;;;;;6078710;23;20025;-76
2022/12/19 19:05:21;;;;;;;13.70;10.88;;;8.30;99.90;;;;;;6192483;23;20238;-75
2022/12/19 19:08:02;;;;;;;14.50;10.33;;;8.20;99.90;;;;;;6194511;23;20083;-77
2022/12/19 19:10:31;;;;;;;13.77;9.77;;;8.00;99.90;;;;;;6195248;23;20119;-76
2022/12/19 19:13:02;;;;;;;13.13;9.38;;;8.10;99.90;;;;;;6194944;23;20211;-76
2022/12/19 19:15:39;;;;;;;16.70;9.38;;;8.30;99.90;;;;;;6146801;23;20183;-77
2022/12/19 19:18:29;;;;;;;10.90;9.10;;;8.00;99.90;;;;;;6168010;23;20017;-78
2022/12/19 19:21:01;;;;;;;12.18;8.85;;;7.90;99.90;;;;;;6170362;23;20008;-77
2022/12/19 19:23:35;;;;;;;11.10;8.38;;;8.10;99.90;;;;;;6169128;23;20355;-76
2022/12/19 19:30:04;;;;;;;16.83;9.98;;;7.70;99.90;;;;;;6148640;23;20022;-76
2022/12/19 19:33:09;;;;;;;13.77;9.68;;;8.50;99.90;;;;;;6193125;23;20023;-75
2022/12/19 19:39:26;;;;;;;12.68;7.53;;;7.90;99.90;;;;;;6102599;23;20020;-75
2022/12/19 19:42:34;;;;;;;;;;;;;;;;;;;;;
2022/12/19 19:49:23;;;;;;;;;;;;;;;;;;;;;
2022/12/19 19:56:04;;;;;;;13.07;8.85;;;8.10;99.90;;;;;;6162875;23;20016;-76
2022/12/19 20:02:41;;;;;;;10.68;8.85;;;8.30;99.90;;;;;;6098160;23;20069;-76
2022/12/19 20:06:25;;;;;;;11.13;8.63;;;8.00;99.90;;;;;;6077304;23;20015;-77
2022/12/19 20:09:34;;;;;;;16.38;8.48;;;8.30;99.90;;;;;;6025600;23;20041;-75
2022/12/19 20:12:14;;;;;;;11.30;8.25;;;7.00;99.90;;;;;;6041285;23;20022;-76
2022/12/19 20:14:42;;;;;;;15.57;9.50;;;7.80;99.90;;;;;;6130913;23;20013;-74
2022/12/19 20:17:10;;;;;;;14.70;8.25;;;7.20;99.90;;;;;;6164487;23;20021;-76
2022/12/19 20:19:49;;;;;;;;;;;;;;;;;;;;;
2022/12/19 20:22:31;;;;;;;11.77;8.55;;;7.10;99.90;;;;;;6189793;23;20017;-75
2022/12/19 20:28:52;;;;;;;11.10;8.85;;;7.10;99.90;;;;;;6068076;23;20042;-78
2022/12/19 20:39:26;;;;;;;10.40;7.45;;;7.70;99.90;;;;;;6001410;23;20029;-76
2022/12/19 20:46:07;;;;;;;9.48;7.50;;;8.30;99.90;;;;;;6069043;23;20017;-76
2022/12/19 20:48:40;;;;;;;10.65;8.02;;;7.80;99.90;;;;;;5988475;23;20070;-77
2022/12/19 20:51:06;;;;;;;12.65;7.03;;;7.80;99.90;;;;;;5943895;23;20454;-76
2022/12/19 20:53:47;;;;;;;;;;;;;;;;;;;;;
2022/12/19 20:56:58;;;;;;;11.90;7.82;;;9.00;99.90;;;;;;6101497;23;20014;-78
2022/12/19 21:00:27;;;;;;;11.30;7.30;;;7.70;99.90;;;;;;6050158;23;20167;-76
2022/12/19 21:03:09;;;;;;;10.43;7.43;;;8.10;99.90;;;;;;6021839;23;20011;-77
2022/12/19 21:06:00;;;;;;;9.63;7.47;;;8.50;99.90;;;;;;6044522;23;20050;-76
2022/12/19 21:08:29;;;;;;;11.07;7.40;;;8.40;99.90;;;;;;6093178;23;20022;-75
2022/12/19 21:11:23;;;;;;;8.70;6.95;;;7.30;99.90;;;;;;6078524;23;20073;-77
2022/12/19 21:14:00;;;;;;;10.02;7.50;;;8.00;99.90;;;;;;6054864;23;20097;-76
2022/12/19 21:16:26;;;;;;;10.98;7.18;;;8.20;99.90;;;;;;6078943;23;20072;-77
2022/12/19 21:19:00;;;;;;;10.90;6.97;;;8.10;99.90;;;;;;6090624;23;20009;-75
2022/12/19 21:22:00;;;;;;;10.70;7.07;;;8.20;99.90;;;;;;6114348;23;20037;-76
2022/12/19 21:25:19;;;;;;;;;;;;;;;;;;;;;
2022/12/19 21:27:45;;;;;;;10.75;8.30;;;9.30;99.90;;;;;;6162224;23;20048;-76
2022/12/19 21:30:13;;;;;;;10.68;7.25;;;8.50;99.90;;;;;;6138333;23;20207;-78
2022/12/19 21:36:39;;;;;;;11.10;8.60;;;8.40;99.90;;;;;;6083400;23;20320;-75
2022/12/19 21:39:45;;;;;;;10.02;7.43;;;8.60;99.90;;;;;;6054168;23;20049;-78
2022/12/19 21:42:39;;;;;;;;;;;;;;;;;;;;;
2022/12/19 21:45:55;;;;;;;8.63;6.43;;;7.70;99.90;;;;;;6162551;23;20008;-75
2022/12/19 21:49:12;;;;;;;9.13;6.35;;;9.00;99.90;;;;;;6119593;23;20272;-74
2022/12/19 21:51:41;;;;;;;;;;;8.40;99.90;;;;;;6086185;23;20104;-76
2022/12/19 21:54:08;;;;;;;10.40;6.97;;;9.20;99.90;;;;;;6159205;23;19908;-74
2022/12/19 21:56:49;;;;;;;12.35;6.70;;;8.60;99.90;;;;;;6170637;23;20008;-74
2022/12/19 21:59:16;;;;;;;6.78;5.07;;;8.60;99.90;;;;;;6148109;23;20388;-75
2022/12/19 22:01:44;;;;;;;8.13;5.80;;;8.90;99.90;;;;;;6170341;23;20261;-76
2022/12/19 22:04:28;;;;;;;11.55;6.97;;;8.70;99.90;;;;;;6122511;23;20084;-75
2022/12/19 22:07:27;;;;;;;7.28;5.93;;;8.70;99.90;;;;;;6195044;23;20012;-77
2022/12/19 22:10:39;;;;;;;9.05;6.55;;;9.80;99.90;;;;;;6195590;23;20044;-77
2022/12/19 22:13:13;;;;;;;8.85;6.03;;;8.80;99.90;;;;;;6161124;23;20557;-77
2022/12/19 22:15:53;;;;;;;9.17;6.63;;;9.00;99.90;;;;;;6194272;23;20012;-78
2022/12/19 22:22:12;;;;;;;7.95;5.85;;;8.00;99.90;;;;;;6158340;23;20024;-77
2022/12/19 22:24:38;;;;;;;7.03;5.30;;;8.30;99.90;;;;;;6110637;23;20068;-76
2022/12/19 22:27:04;;;;;;;7.60;5.63;;;9.00;99.90;;;;;;6166387;23;20169;-76
2022/12/19 22:29:35;;;;;;;6.10;4.72;;;9.00;99.90;;;;;;6168609;23;20020;-76
2022/12/19 22:32:01;;;;;;;8.48;5.38;;;8.90;99.90;;;;;;6193889;23;20013;-77
2022/12/19 22:34:27;;;;;;;9.63;5.45;;;10.10;99.90;;;;;;6191661;23;20023;-75
2022/12/19 22:36:53;;;;;;;5.70;4.18;;;8.90;99.90;;;;;;6191915;23;20008;-77
2022/12/19 22:39:21;;;;;;;7.75;4.97;;;9.00;99.90;;;;;;6144558;23;20016;-74
2022/12/19 22:41:48;;;;;;;8.30;5.32;;;9.10;99.90;;;;;;6169669;23;20055;-74
2022/12/19 22:44:22;;;;;;;7.03;5.80;;;9.00;99.90;;;;;;6194068;23;20076;-74
2022/12/19 22:46:49;;;;;;;7.03;4.72;;;8.90;99.90;;;;;;6167989;23;20016;-76
2022/12/19 22:49:20;;;;;;;7.95;5.15;;;9.10;99.90;;;;;;6143669;23;20356;-77
2022/12/19 22:52:27;;;;;;;7.28;5.30;;;8.90;99.90;;;;;;6156471;23;20159;-76
2022/12/19 22:55:45;;;;;;;9.32;5.15;;;8.90;99.90;;;;;;6107091;23;20017;-76
2022/12/19 23:02:14;;;;;;;9.75;5.40;;;9.80;99.90;;;;;;6051665;23;20018;-78
2022/12/19 23:04:51;;;;;;;6.60;4.63;;;9.10;99.90;;;;;;6191983;23;20017;-76
2022/12/19 23:08:04;;;;;;;5.72;4.82;;;9.30;99.90;;;;;;6193482;23;20071;-76
2022/12/19 23:11:07;;;;;;;;;;;;;;;;;;;;;
2022/12/19 23:13:57;;;;;;;6.55;4.88;;;9.30;99.90;;;;;;6219979;23;20031;-74
2022/12/19 23:16:31;;;;;;;7.68;4.63;;;9.30;99.90;;;;;;6147398;23;20192;-75
2022/12/19 23:22:48;;;;;;;7.47;4.43;;;10.00;99.90;;;;;;6152776;23;20065;-75
2022/12/19 23:25:13;;;;;;;6.40;4.35;;;8.70;99.90;;;;;;6126937;23;20008;-77